Current Weather

Joint Base Andrews

Camp Springs, Maryland (KADW)

Report from: Tuesday, July 16, 2024 10:55 AM EDT
Current time: Tuesday, July 16, 2024 11:43 AM EDT

Nearby weather – Weather history – Daily summaries
Weather forecast

Temperature35.4°C (95.7°F)
Heat index38.3°C (100.9°F)
Dew point20.1°C (68.2°F)
Winds 8 kts (4.1 m/s, 9.2 mph) Southwest (220°)
Visibility10 mi. (16.1 km)
Clouds Sky clear
Altimeter29.84 in.Hg (1010 mB)
Relative humidity41 %
Density altitude2,713 ft. (827 m)
Sea-level pressure101.1 kPa (1011 mB, 29.85 in.Hg)
Remarks Fully automated report
System requires maintenance
Automated weather observing station with precipitation discriminator
Present weather sensor not operating
Pressure falling, then rising
Flight conditions Visual Meteorological Conditions
Raw dataKADW 161455Z AUTO 22008KT 10SM CLR 35/20 A2984 RMK AO2 SLP108 T03540201 55007 PWINO $
An error has occurred. This application may no longer respond until reloaded. Reload 🗙